Time;durP1;ratioP1;P1;durP2;ratioP2;P2;SDS_P1;SDS_P2;PMS_P1;PMS_P2;Temp;Humidity;BMP_temperature;BMP_pressure;BME280_temperature;BME280_humidity;BME280_pressure;Samples;Min_cycle;Max_cycle;Signal;HPM_P1;HPM_P2
2022/05/18 00:03:12;;;;;;;2.62;1.25;;;;;;;7.45;41.96;101426.00;3449144;81;20930;-77
2022/05/18 00:08:05;;;;;;;1.67;1.00;;;;;;;7.37;42.29;101428.70;3407766;81;21513;-78
2022/05/18 00:12:57;;;;;;;1.30;0.98;;;;;;;7.27;42.97;101435.17;3425641;81;21197;-78
2022/05/18 00:17:48;;;;;;;0.98;0.88;;;;;;;7.13;42.62;101439.76;3394054;81;20957;-78
2022/05/18 00:22:49;;;;;;;1.10;0.80;;;;;;;7.05;42.70;101445.03;3401129;81;20910;-78
2022/05/18 00:27:40;;;;;;;3.20;1.98;;;;;;;6.99;42.81;101448.62;3430755;81;20921;-78
2022/05/18 00:32:32;;;;;;;1.90;1.70;;;;;;;6.94;43.08;101459.17;3423530;81;20936;-78
2022/05/18 00:37:23;;;;;;;2.40;1.32;;;;;;;6.85;43.20;101463.14;3422899;81;21961;-79
2022/05/18 00:42:20;;;;;;;1.52;1.17;;;;;;;6.82;43.31;101464.30;3405095;82;21480;-78
2022/05/18 00:47:11;;;;;;;1.30;1.15;;;;;;;6.76;43.53;101473.08;3381407;82;20951;-78
2022/05/18 00:52:03;;;;;;;2.17;1.02;;;;;;;6.72;43.65;101473.73;3342615;83;21003;-78
2022/05/18 00:57:00;;;;;;;1.30;1.10;;;;;;;6.65;44.25;101478.16;3359252;83;20959;-78
2022/05/18 01:01:53;;;;;;;1.67;1.20;;;;;;;6.56;44.15;101488.95;3406122;83;22042;-78
2022/05/18 01:06:52;;;;;;;0.85;0.82;;;;;;;6.52;44.63;101495.23;3360253;83;21473;-78
2022/05/18 01:11:43;;;;;;;1.57;0.88;;;;;;;6.42;45.02;101499.97;3381389;83;20976;-78
2022/05/18 01:16:34;;;;;;;1.67;1.10;;;;;;;6.34;45.43;101514.22;3359923;83;20972;-78
2022/05/18 01:21:31;;;;;;;1.85;1.57;;;;;;;6.29;45.36;101515.69;3320753;83;21576;-78
2022/05/18 01:26:42;;;;;;;1.40;1.00;;;;;;;6.21;45.49;101517.05;3401699;83;22524;-77
2022/05/18 01:31:47;;;;;;;1.52;1.12;;;;;;;6.15;45.94;101518.03;3389386;83;20932;-78
2022/05/18 01:36:38;;;;;;;2.42;1.20;;;;;;;6.02;45.94;101525.59;3376494;83;20968;-78
2022/05/18 01:41:34;;;;;;;1.67;1.10;;;;;;;5.95;46.47;101526.08;3434800;79;20946;-77
2022/05/18 01:46:31;;;;;;;2.47;0.90;;;;;;;5.85;46.58;101532.09;3508533;80;21042;-77
2022/05/18 01:51:45;;;;;;;1.82;1.05;;;;;;;5.67;46.95;101534.64;3402840;82;21175;-77
2022/05/18 01:56:37;;;;;;;2.40;1.30;;;;;;;5.59;47.54;101538.94;3420117;82;20946;-77
2022/05/18 02:01:28;;;;;;;3.50;1.32;;;;;;;5.47;47.90;101537.89;3452685;80;21558;-77
2022/05/18 02:06:20;;;;;;;1.15;0.93;;;;;;;5.33;47.99;101539.38;3406039;82;20946;-77
2022/05/18 02:11:18;;;;;;;1.85;1.07;;;;;;;5.21;48.70;101544.31;3452917;82;20970;-77
2022/05/18 02:16:10;;;;;;;1.77;1.62;;;;;;;5.13;48.81;101547.76;3450750;82;22086;-77
2022/05/18 02:21:05;;;;;;;4.62;1.05;;;;;;;5.00;49.23;101557.83;3447262;82;20954;-77
2022/05/18 02:25:58;;;;;;;2.52;1.15;;;;;;;4.89;49.41;101558.55;3485420;80;21405;-77
2022/05/18 02:30:49;;;;;;;1.85;1.20;;;;;;;4.76;49.88;101558.71;3455036;80;20936;-78
2022/05/18 02:35:41;;;;;;;1.55;1.30;;;;;;;4.64;50.06;101566.66;3497616;81;20943;-77
2022/05/18 02:40:32;;;;;;;1.50;0.98;;;;;;;4.53;50.36;101567.77;3447809;80;22019;-78
2022/05/18 02:45:23;;;;;;;1.90;1.05;;;;;;;4.35;50.54;101572.78;3490664;80;20954;-77
2022/05/18 02:50:14;;;;;;;1.85;1.45;;;;;;;4.22;50.92;101584.08;3477025;80;21633;-77
2022/05/18 03:00:17;;;;;;;3.85;1.07;;;;;;;4.17;51.48;101601.83;3474835;80;20970;-78
2022/05/18 03:05:08;;;;;;;2.27;1.72;;;;;;;4.06;51.64;101608.06;3464787;80;21140;-77
2022/05/18 03:10:00;;;;;;;1.87;1.37;;;;;;;4.00;52.03;101611.55;3462214;81;20937;-77
2022/05/18 03:14:51;;;;;;;2.35;1.20;;;;;;;4.07;52.43;101621.39;3471489;80;20958;-77
2022/05/18 03:19:42;;;;;;;3.33;1.67;;;;;;;4.04;52.38;101625.06;3463612;80;20993;-77
2022/05/18 03:24:33;;;;;;;2.67;1.50;;;;;;;4.03;53.08;101633.61;3458813;81;21374;-78
2022/05/18 03:29:25;;;;;;;3.67;2.27;;;;;;;4.11;53.48;101641.77;3453424;80;21777;-77
2022/05/18 03:34:16;;;;;;;2.47;1.65;;;;;;;4.28;53.56;101644.03;3449936;79;20954;-77
2022/05/18 03:39:09;;;;;;;2.15;1.30;;;;;;;4.42;53.77;101649.57;3527216;80;20938;-78
2022/05/18 03:44:08;;;;;;;3.83;2.35;;;;;;;4.70;54.05;101661.00;3498420;80;20930;-77
2022/05/18 03:48:59;;;;;;;8.15;4.78;;;;;;;5.20;53.58;101673.61;3457568;80;20898;-78
2022/05/18 03:53:51;;;;;;;7.22;4.08;;;;;;;5.24;53.51;101678.15;3511100;80;21491;-78
2022/05/18 03:58:42;;;;;;;3.85;2.77;;;;;;;5.27;53.46;101687.31;3510242;80;21603;-78
2022/05/18 04:03:35;;;;;;;1.72;1.25;;;;;;;5.35;53.49;101688.63;3485317;79;20993;-78
2022/05/18 04:08:27;;;;;;;1.80;1.47;;;;;;;5.39;53.71;101705.56;3478564;80;21404;-77
2022/05/18 04:13:21;;;;;;;2.45;1.10;;;;;;;5.38;53.77;101712.80;3450539;79;20951;-78
2022/05/18 04:18:13;;;;;;;3.02;1.30;;;;;;;5.41;53.90;101719.42;3458474;80;21029;-77
2022/05/18 04:23:04;;;;;;;1.65;1.27;;;;;;;5.42;54.25;101719.89;3460701;80;20940;-78
2022/05/18 04:27:56;;;;;;;1.70;1.55;;;;;;;5.47;54.56;101715.88;3369376;82;20979;-78
2022/05/18 04:32:47;;;;;;;2.75;1.35;;;;;;;5.65;54.28;101722.03;3410826;80;21987;-78
2022/05/18 04:37:39;;;;;;;4.10;1.47;;;;;;;5.69;54.26;101725.25;3395456;82;21457;-78
2022/05/18 04:42:30;;;;;;;8.10;1.80;;;;;;;5.81;54.38;101726.70;3374909;82;21134;-78
2022/05/18 04:47:24;;;;;;;3.45;1.60;;;;;;;5.89;54.43;101730.58;3345827;82;21441;-78
2022/05/18 04:52:15;;;;;;;2.52;2.02;;;;;;;5.95;54.21;101732.58;3419692;82;20968;-78
2022/05/18 04:57:06;;;;;;;3.60;1.37;;;;;;;6.05;54.51;101742.63;3362659;81;21014;-78
2022/05/18 05:01:57;;;;;;;4.75;1.52;;;;;;;6.13;54.57;101741.72;3325028;82;21652;-78
2022/05/18 05:06:48;;;;;;;2.30;2.05;;;;;;;6.21;54.20;101740.42;3353152;82;21532;-78
2022/05/18 05:11:40;;;;;;;3.95;1.45;;;;;;;6.34;54.15;101736.34;3342440;82;21061;-78
2022/05/18 05:16:32;;;;;;;4.55;1.60;;;;;;;6.44;53.79;101729.97;3381661;82;20943;-78
2022/05/18 05:21:24;;;;;;;2.72;1.20;;;;;;;6.53;53.65;101734.67;3373715;83;20947;-78
2022/05/18 05:26:15;;;;;;;3.77;1.57;;;;;;;6.61;53.96;101736.83;3387766;82;20951;-78
2022/05/18 05:31:09;;;;;;;3.67;1.52;;;;;;;6.74;53.67;101743.48;3336243;82;20947;-78
2022/05/18 05:36:01;;;;;;;3.02;1.52;;;;;;;6.83;53.66;101742.67;3408033;82;20940;-78
2022/05/18 05:40:52;;;;;;;3.83;2.10;;;;;;;7.02;53.43;101742.25;3382672;82;21517;-78
2022/05/18 05:45:54;;;;;;;2.17;1.37;;;;;;;7.22;53.02;101751.83;3412972;82;21224;-78
2022/05/18 05:50:45;;;;;;;2.47;1.27;;;;;;;7.41;52.71;101752.70;3423984;81;20966;-81
2022/05/18 05:55:36;;;;;;;2.58;1.20;;;;;;;7.64;52.47;101754.64;3427291;81;20985;-83
2022/05/18 06:00:27;;;;;;;2.17;1.20;;;;;;;8.21;51.63;101770.53;3425198;81;21568;-83
2022/05/18 06:05:20;;;;;;;4.22;1.55;;;;;;;8.49;51.63;101767.84;3414104;81;20925;-80
2022/05/18 06:10:12;;;;;;;3.37;1.40;;;;;;;9.85;49.74;101767.56;3414581;81;20950;-81
2022/05/18 06:15:06;;;;;;;16.02;3.37;;;;;;;10.79;48.28;101775.64;3470327;81;21512;-81
2022/05/18 06:19:57;;;;;;;2.83;1.40;;;;;;;12.18;46.46;101785.07;3405684;81;21909;-80
2022/05/18 06:24:51;;;;;;;2.20;1.17;;;;;;;13.10;44.87;101779.56;3418801;81;20855;-81
2022/05/18 06:29:41;;;;;;;12.58;2.37;;;;;;;12.99;44.29;101785.39;3421427;81;20935;-80
2022/05/18 06:34:32;;;;;;;2.62;1.70;;;;;;;13.82;43.53;101787.27;3494306;81;20948;-80
2022/05/18 06:39:23;;;;;;;2.75;1.55;;;;;;;13.45;43.10;101800.83;3382487;81;21283;-79
2022/05/18 06:44:15;;;;;;;6.60;1.40;;;;;;;14.04;41.68;101806.47;3460385;81;22221;-83
2022/05/18 06:49:10;;;;;;;5.97;1.60;;;;;;;14.14;41.80;101805.34;3453304;81;20978;-82
2022/05/18 06:54:01;;;;;;;5.97;1.45;;;;;;;13.33;42.49;101802.76;3407541;81;21303;-82
2022/05/18 06:58:54;;;;;;;2.72;1.32;;;;;;;12.98;42.30;101815.81;3419755;81;21556;-82
2022/05/18 07:03:47;;;;;;;2.42;1.40;;;;;;;14.45;41.06;101807.69;3399898;82;20986;-81
2022/05/18 07:08:40;;;;;;;4.80;1.20;;;;;;;14.44;40.46;101812.45;3430800;81;21945;-82
2022/05/18 07:13:33;;;;;;;1.85;0.98;;;;;;;13.80;40.70;101821.20;3412201;81;21201;-82
2022/05/18 07:18:29;;;;;;;2.58;1.40;;;;;;;14.06;40.43;101814.35;3396554;82;20975;-82
2022/05/18 07:23:20;;;;;;;2.87;1.20;;;;;;;15.05;39.07;101815.72;3451856;81;20977;-82
2022/05/18 07:28:12;;;;;;;4.08;1.40;;;;;;;16.22;37.56;101816.45;3375776;81;20998;-89
2022/05/18 07:33:03;;;;;;;1.60;1.30;;;;;;;20.62;33.54;101803.39;3388421;81;22409;-88
2022/05/18 07:37:56;;;;;;;1.87;1.20;;;;;;;24.72;29.79;101800.48;3431608;82;23396;-89
2022/05/18 07:42:47;;;;;;;4.45;1.57;;;;;;;26.99;26.47;101800.92;3342519;83;22050;-88
2022/05/18 07:47:38;;;;;;;2.40;1.30;;;;;;;29.15;24.03;101801.93;3422146;82;21094;-86
2022/05/18 07:52:30;;;;;;;2.75;1.62;;;;;;;28.06;25.02;101805.96;3394638;83;20966;-87
2022/05/18 07:57:24;;;;;;;4.47;1.95;;;;;;;25.59;25.08;101801.73;3417093;83;21075;-89
2022/05/18 08:02:15;;;;;;;2.27;2.08;;;;;;;24.10;25.59;101802.35;3344402;83;21037;-87
2022/05/18 08:07:06;;;;;;;13.50;2.85;;;;;;;22.63;25.82;101805.08;3380665;82;20915;-87
2022/05/18 08:17:06;;;;;;;4.28;1.45;;;;;;;23.14;25.58;101801.61;3392333;83;21058;-88
2022/05/18 08:21:57;;;;;;;6.12;2.25;;;;;;;24.57;23.88;101803.05;3333763;83;21253;-83
2022/05/18 08:26:48;;;;;;;23.85;4.25;;;;;;;27.22;22.69;101790.34;3353905;83;21017;-85
2022/05/18 08:31:39;;;;;;;3.72;1.20;;;;;;;29.20;21.22;101793.23;3305809;84;20947;-86
2022/05/18 08:36:31;;;;;;;3.60;1.25;;;;;;;28.98;21.10;101781.71;3350954;83;20936;-86
2022/05/18 08:41:42;;;;;;;3.83;1.22;;;;;;;29.58;20.29;101777.25;3406026;82;20991;-87
2022/05/18 08:46:52;;;;;;;2.90;1.60;;;;;;;30.95;19.28;101785.84;3451556;82;21546;-85
2022/05/18 08:52:17;;;;;;;1.10;1.05;;;;;;;28.80;19.79;101789.59;3449621;82;20945;-90
2022/05/18 08:57:26;;;;;;;1.65;1.35;;;;;;;25.98;21.47;101785.52;3476974;81;20967;-89
2022/05/18 09:02:22;;;;;;;3.00;1.12;;;;;;;23.48;22.53;101791.64;3441164;81;21827;-82
2022/05/18 09:07:16;;;;;;;;;;;;;;;23.33;22.50;101785.33;3439279;81;21702;-90
2022/05/18 09:12:07;;;;;;;1.10;1.00;;;;;;;22.32;23.19;101780.84;3482738;81;20782;-84
2022/05/18 09:17:07;;;;;;;2.58;1.25;;;;;;;25.17;22.13;101766.08;3418661;81;21522;-84
2022/05/18 09:22:13;;;;;;;1.40;1.30;;;;;;;27.51;20.44;101780.85;3487421;81;20934;-84
2022/05/18 09:27:40;;;;;;;1.55;1.15;;;;;;;27.14;20.56;101783.95;3507787;81;20989;-85
2022/05/18 09:32:59;;;;;;;2.12;1.40;;;;;;;24.61;22.11;101774.17;3507489;81;20962;-83
2022/05/18 09:38:01;;;;;;;3.40;1.25;;;;;;;27.74;20.57;101761.72;3479652;80;21461;-83
2022/05/18 09:42:58;;;;;;;4.58;1.45;;;;;;;29.49;19.38;101756.22;3500490;79;20987;-84
2022/05/18 09:48:00;;;;;;;3.65;1.20;;;;;;;31.05;19.32;101752.19;3497995;79;21433;-86
2022/05/18 09:52:52;;;;;;;1.82;1.32;;;;;;;31.75;17.47;101753.35;3487671;80;20930;-88
2022/05/18 09:58:04;;;;;;;1.82;1.30;;;;;;;31.95;17.78;101752.70;3468392;80;20954;-85
2022/05/18 10:08:12;;;;;;;3.63;1.00;;;;;;;32.30;17.66;101754.25;3495731;80;21080;-83
2022/05/18 10:13:09;;;;;;;1.00;0.95;;;;;;;32.76;17.25;101752.49;3475941;80;20910;-86
2022/05/18 10:18:37;;;;;;;2.98;1.10;;;;;;;32.65;16.82;101758.53;3463617;81;20890;-86
2022/05/18 10:23:36;;;;;;;4.58;1.30;;;;;;;32.21;17.14;101749.41;3492039;80;21040;-84
2022/05/18 10:28:31;;;;;;;1.15;1.00;;;;;;;32.50;16.76;101749.52;3475999;80;21886;-85
2022/05/18 10:33:33;;;;;;;3.30;0.93;;;;;;;32.81;16.44;101738.27;3485418;80;20962;-85
2022/05/18 10:38:30;;;;;;;3.52;0.90;;;;;;;32.80;16.83;101728.45;3432352;81;21456;-83
2022/05/18 10:43:56;;;;;;;3.80;1.75;;;;;;;32.66;16.73;101734.20;3439124;81;22142;-85
2022/05/18 10:49:03;;;;;;;1.12;1.10;;;;;;;32.16;16.79;101727.29;3514391;81;20923;-84
2022/05/18 10:54:00;;;;;;;2.22;1.25;;;;;;;31.18;16.64;101724.69;3463302;79;21033;-87
2022/05/18 10:59:12;;;;;;;3.05;1.22;;;;;;;30.96;17.44;101717.75;3460485;80;21732;-88
2022/05/18 11:04:19;;;;;;;8.43;1.50;;;;;;;30.53;16.54;101721.30;3485830;81;22038;-87
2022/05/18 11:09:18;;;;;;;4.15;0.93;;;;;;;30.07;17.15;101720.94;3496580;80;21214;-86
2022/05/18 11:14:21;;;;;;;0.90;0.90;;;;;;;28.04;18.12;101708.03;3538585;79;20943;-86
2022/05/18 11:19:42;;;;;;;3.30;1.47;;;;;;;26.51;19.42;101705.63;3496887;80;21077;-86
2022/05/18 11:25:01;;;;;;;1.12;0.98;;;;;;;25.41;18.88;101713.48;3538751;80;21297;-86
2022/05/18 11:30:37;;;;;;;2.35;0.90;;;;;;;24.86;22.14;101704.37;3512557;80;20977;-88
2022/05/18 11:35:37;;;;;;;2.15;0.90;;;;;;;24.62;20.96;101714.75;3418443;82;21533;-84
2022/05/18 11:40:54;;;;;;;1.75;0.98;;;;;;;24.43;21.76;101707.69;3413839;81;21465;-86
2022/05/18 11:46:31;;;;;;;2.35;0.90;;;;;;;24.03;21.74;101699.80;3474708;80;21001;-87
2022/05/18 11:52:06;;;;;;;2.70;0.80;;;;;;;23.90;20.99;101696.10;3392620;83;20978;-86
2022/05/18 11:57:06;;;;;;;1.62;0.80;;;;;;;23.69;22.06;101685.94;3480899;81;20942;-88
2022/05/18 12:02:23;;;;;;;4.40;1.40;;;;;;;23.87;23.76;101696.16;3507930;80;20919;-83
2022/05/18 12:07:44;;;;;;;1.12;0.95;;;;;;;23.73;22.17;101692.92;3481490;81;20918;-86
2022/05/18 12:12:53;;;;;;;6.97;0.88;;;;;;;23.77;21.58;101689.31;3486386;81;21163;-84
2022/05/18 12:18:09;;;;;;;1.10;0.93;;;;;;;23.69;20.27;101681.95;3518688;80;21456;-87
2022/05/18 12:23:06;;;;;;;1.10;0.85;;;;;;;23.08;20.99;101678.37;3482197;81;21535;-86
2022/05/18 12:28:02;;;;;;;2.30;1.00;;;;;;;23.17;21.54;101684.80;3370459;82;20965;-85
2022/05/18 12:32:54;;;;;;;3.40;0.97;;;;;;;23.26;23.95;101681.56;3481705;80;20981;-88
2022/05/18 12:38:13;;;;;;;1.15;0.75;;;;;;;23.35;23.44;101679.58;3423344;81;21990;-83
2022/05/18 12:43:15;;;;;;;1.65;0.90;;;;;;;23.41;22.04;101678.56;3453955;80;20902;-84
2022/05/18 12:48:14;;;;;;;2.87;0.90;;;;;;;23.51;21.39;101678.80;3463958;80;20934;-81
2022/05/18 12:53:25;;;;;;;3.00;0.70;;;;;;;23.42;21.38;101669.71;3422016;81;21272;-87
2022/05/18 12:58:37;;;;;;;3.72;1.10;;;;;;;23.45;22.07;101674.96;3465788;81;21499;-84
2022/05/18 13:03:52;;;;;;;2.77;0.90;;;;;;;23.60;20.74;101663.13;3497640;80;21043;-85
2022/05/18 13:09:16;;;;;;;3.70;1.00;;;;;;;23.53;21.17;101661.05;3507998;80;21080;-78
2022/05/18 13:14:36;;;;;;;2.70;0.70;;;;;;;23.50;22.24;101666.45;3464027;80;20954;-89
2022/05/18 13:19:32;;;;;;;1.22;0.98;;;;;;;23.46;20.68;101655.45;3510619;80;20955;-82
2022/05/18 13:24:39;;;;;;;3.03;1.30;;;;;;;23.49;21.61;101648.77;3458091;80;21381;-80
2022/05/18 13:29:32;;;;;;;1.67;1.30;;;;;;;23.60;21.91;101642.75;3468937;80;21953;-80
2022/05/18 13:34:30;;;;;;;3.00;0.98;;;;;;;23.54;21.88;101638.06;3463174;80;20911;-80
2022/05/18 13:39:25;;;;;;;;;;;;;;;23.47;21.98;101632.47;3496430;80;20989;-84
2022/05/18 13:44:16;;;;;;;2.62;0.95;;;;;;;23.45;22.63;101628.52;3508104;81;20359;-83
2022/05/18 13:49:18;;;;;;;2.77;1.62;;;;;;;23.36;22.37;101630.05;3445953;81;20962;-80
2022/05/18 13:54:14;;;;;;;1.65;1.02;;;;;;;23.29;23.16;101636.40;3457345;81;20993;-85
2022/05/18 13:59:13;;;;;;;1.55;0.98;;;;;;;23.26;21.47;101625.84;3507136;80;21544;-87
2022/05/18 14:04:04;;;;;;;4.05;1.52;;;;;;;23.24;21.87;101615.27;3442818;80;20962;-85
2022/05/18 14:09:00;;;;;;;1.42;1.25;;;;;;;23.12;22.31;101611.08;3481498;81;21008;-86
2022/05/18 14:13:52;;;;;;;1.80;1.17;;;;;;;23.17;22.62;101609.20;3488985;80;20935;-83
2022/05/18 14:18:51;;;;;;;1.20;1.10;;;;;;;23.13;22.34;101610.19;3438369;82;21065;-80
2022/05/18 14:23:57;;;;;;;1.30;1.00;;;;;;;23.09;23.56;101600.56;3436748;82;21152;-84
2022/05/18 14:28:52;;;;;;;1.60;1.15;;;;;;;23.18;23.39;101605.66;3449012;82;20927;-83
2022/05/18 14:33:54;;;;;;;2.50;1.45;;;;;;;23.07;23.10;101605.00;3395251;82;20959;-88
2022/05/18 14:38:50;;;;;;;2.98;0.98;;;;;;;22.94;22.42;101596.39;3430069;82;21484;-82
2022/05/18 14:43:41;;;;;;;3.15;1.05;;;;;;;23.01;23.14;101597.15;3447558;82;21029;-79
2022/05/18 14:48:46;;;;;;;3.92;0.90;;;;;;;23.02;23.87;101597.13;3482986;81;21487;-79
2022/05/18 14:53:59;;;;;;;1.50;0.80;;;;;;;23.15;23.42;101594.25;3443585;82;20994;-82
2022/05/18 14:58:58;;;;;;;4.80;1.05;;;;;;;22.96;23.01;101591.06;3450423;82;20994;-82
2022/05/18 15:03:50;;;;;;;2.27;0.95;;;;;;;22.95;22.87;101599.94;3415795;81;20881;-81
2022/05/18 15:08:52;;;;;;;2.95;1.90;;;;;;;22.68;23.15;101590.31;3444503;82;21160;-82
2022/05/18 15:13:51;;;;;;;1.05;0.95;;;;;;;22.62;22.50;101578.48;3460058;82;20970;-82
2022/05/18 15:18:47;;;;;;;2.70;1.15;;;;;;;22.55;23.13;101577.72;3484098;82;21070;-84
2022/05/18 15:23:45;;;;;;;2.05;0.85;;;;;;;22.44;22.76;101583.69;3437857;81;39018;-85
2022/05/18 15:28:50;;;;;;;6.05;2.65;;;;;;;22.34;23.15;101584.33;3403449;80;20963;-83
2022/05/18 15:33:50;;;;;;;2.08;1.00;;;;;;;22.38;23.34;101588.66;3375250;82;21571;-77
2022/05/18 15:38:43;;;;;;;2.67;0.78;;;;;;;22.33;23.88;101582.56;3477626;80;21029;-86
2022/05/18 15:43:34;;;;;;;1.75;0.90;;;;;;;22.09;23.35;101587.36;3420668;80;21005;-80
2022/05/18 15:48:28;;;;;;;2.17;1.10;;;;;;;21.98;23.71;101587.11;3468005;80;20938;-81
2022/05/18 15:53:24;;;;;;;2.72;1.00;;;;;;;21.77;23.67;101587.03;3451463;81;21568;-81
2022/05/18 15:58:16;;;;;;;1.10;0.93;;;;;;;21.61;23.70;101595.66;3454560;82;21915;-81
2022/05/18 16:03:11;;;;;;;1.22;0.90;;;;;;;21.60;23.65;101585.50;3479149;80;20943;-81
2022/05/18 16:08:03;;;;;;;4.17;0.90;;;;;;;21.52;24.27;101584.76;3405369;81;20913;-81
2022/05/18 16:12:56;;;;;;;1.72;1.10;;;;;;;21.35;24.31;101589.37;3429692;80;20945;-81
2022/05/18 16:17:49;;;;;;;3.00;0.98;;;;;;;21.19;23.91;101589.57;3463584;80;21421;-81
2022/05/18 16:22:41;;;;;;;2.08;0.85;;;;;;;21.16;24.12;101589.63;3427437;80;21595;-81
2022/05/18 16:27:35;;;;;;;3.30;1.25;;;;;;;21.08;24.02;101575.63;3487801;80;21007;-82
2022/05/18 16:32:26;;;;;;;1.57;1.10;;;;;;;20.94;24.70;101579.76;3495184;81;20957;-82
2022/05/18 16:37:18;;;;;;;2.65;0.95;;;;;;;20.83;24.78;101579.89;3446241;80;20918;-81
2022/05/18 16:42:13;;;;;;;0.95;0.68;;;;;;;20.70;25.08;101579.63;3466446;80;22557;-81
2022/05/18 16:47:04;;;;;;;5.25;1.37;;;;;;;20.60;25.10;101582.77;3476503;80;22192;-81
2022/05/18 16:51:58;;;;;;;4.40;1.32;;;;;;;20.41;24.60;101574.17;3443852;80;21012;-81
2022/05/18 16:56:50;;;;;;;1.70;1.20;;;;;;;20.28;25.24;101577.81;3441338;80;21014;-81
2022/05/18 17:01:45;;;;;;;3.83;1.30;;;;;;;20.19;26.83;101578.77;3414706;81;20960;-81
2022/05/18 17:06:36;;;;;;;1.92;1.77;;;;;;;19.97;25.75;101582.92;3499054;80;20958;-81
2022/05/18 17:11:42;;;;;;;3.30;1.35;;;;;;;19.83;25.72;101583.92;3434198;80;21003;-80
2022/05/18 17:16:36;;;;;;;4.47;1.22;;;;;;;19.64;27.48;101590.63;3482518;80;20992;-78
2022/05/18 17:21:28;;;;;;;6.37;1.35;;;;;;;19.36;27.69;101596.06;3392689;81;21159;-78
2022/05/18 17:26:34;;;;;;;1.87;1.60;;;;;;;19.14;28.04;101591.80;3460928;81;21146;-78
2022/05/18 17:31:28;;;;;;;2.05;1.45;;;;;;;18.96;27.76;101592.30;3441248;81;21575;-78
2022/05/18 17:36:20;;;;;;;2.35;1.37;;;;;;;18.74;28.75;101586.63;3399780;81;21798;-78
2022/05/18 17:41:11;;;;;;;1.60;1.15;;;;;;;18.52;29.10;101590.63;3456510;81;20933;-79
2022/05/18 17:46:04;;;;;;;148.07;17.12;;;;;;;18.17;29.19;101592.89;3464774;80;21044;-75
2022/05/18 17:50:57;;;;;;;68.90;8.35;;;;;;;17.83;29.99;101588.91;3479989;80;21614;-79
2022/05/18 17:55:51;;;;;;;21.12;2.95;;;;;;;17.47;31.71;101585.34;3467861;80;20946;-79
2022/05/18 18:00:46;;;;;;;148.38;15.75;;;;;;;17.08;30.81;101586.97;3501232;80;21015;-79
2022/05/18 18:05:37;;;;;;;29.65;4.50;;;;;;;16.72;32.44;101587.21;3499002;80;21583;-79
2022/05/18 18:10:31;;;;;;;11.08;2.05;;;;;;;16.41;32.73;101588.75;3440245;80;20981;-79
2022/05/18 18:15:24;;;;;;;4.78;1.60;;;;;;;16.12;32.31;101595.11;3384667;82;20968;-77
2022/05/18 18:20:25;;;;;;;8.38;1.90;;;;;;;15.77;33.11;101599.19;3430712;81;22157;-77
2022/05/18 18:25:18;;;;;;;25.37;4.40;;;;;;;15.50;33.56;101602.34;3434843;81;22092;-76
2022/05/18 18:30:14;;;;;;;25.85;4.15;;;;;;;15.29;33.83;101606.04;3443727;81;21052;-76
2022/05/18 18:35:06;;;;;;;12.58;2.58;;;;;;;14.99;34.41;101607.44;3458365;81;20954;-76
2022/05/18 18:39:59;;;;;;;20.72;2.98;;;;;;;14.73;35.58;101614.49;3404170;81;21451;-76
2022/05/18 18:44:52;;;;;;;9.83;3.55;;;;;;;14.48;35.64;101614.09;3395375;81;21456;-76
2022/05/18 18:49:43;;;;;;;6.05;1.95;;;;;;;14.22;36.34;101623.30;3426175;82;21203;-76
2022/05/18 18:54:53;;;;;;;3.72;2.37;;;;;;;13.99;36.42;101626.39;3447963;81;20957;-76
2022/05/18 18:59:40;;;;;;;4.60;1.80;;;;;;;13.76;37.21;101630.33;3455215;81;20994;-76
2022/05/18 19:04:32;;;;;;;4.03;2.00;;;;;;;13.52;37.42;101632.91;3412628;81;21255;-77
2022/05/18 19:09:27;;;;;;;10.05;2.25;;;;;;;13.33;38.00;101632.98;3442032;81;21061;-76
2022/05/18 19:14:19;;;;;;;10.85;2.65;;;;;;;13.13;38.67;101635.16;3462340;81;21468;-76
2022/05/18 19:19:10;;;;;;;8.90;2.47;;;;;;;12.91;38.86;101632.09;3390363;81;20931;-76
2022/05/18 19:24:04;;;;;;;13.97;3.60;;;;;;;12.70;39.51;101637.70;3404671;81;20990;-76
2022/05/18 19:29:00;;;;;;;10.93;5.35;;;;;;;12.47;40.21;101637.16;3399463;81;22394;-76
2022/05/18 19:33:51;;;;;;;14.87;5.40;;;;;;;12.23;40.89;101654.81;3440462;80;20955;-76
2022/05/18 19:38:43;;;;;;;13.30;5.42;;;;;;;12.05;41.24;101661.30;3462549;80;21000;-76
2022/05/18 19:43:35;;;;;;;20.62;4.67;;;;;;;11.84;41.70;101657.70;3509337;80;21384;-76
2022/05/18 19:48:29;;;;;;;15.40;4.45;;;;;;;11.63;42.04;101654.09;3461197;79;21040;-76
2022/05/18 19:53:21;;;;;;;16.35;4.00;;;;;;;11.41;42.26;101650.89;3434135;80;20986;-76
2022/05/18 19:58:17;;;;;;;15.45;3.85;;;;;;;11.23;42.99;101651.64;3445461;80;21476;-76
2022/05/18 20:03:08;;;;;;;16.55;5.15;;;;;;;10.99;43.38;101651.38;3449338;80;20963;-76
2022/05/18 20:08:00;;;;;;;15.15;5.95;;;;;;;10.84;43.96;101651.81;3423621;81;20942;-76
2022/05/18 20:12:51;;;;;;;19.73;6.62;;;;;;;10.70;44.30;101648.33;3462540;80;21432;-76
2022/05/18 20:17:42;;;;;;;12.43;6.70;;;;;;;10.55;44.69;101648.30;3443154;80;20990;-76
2022/05/18 20:22:34;;;;;;;14.65;6.35;;;;;;;10.40;44.80;101648.67;3440985;80;20903;-76
2022/05/18 20:27:27;;;;;;;12.47;6.30;;;;;;;10.19;45.00;101648.80;3460082;80;21131;-77
2022/05/18 20:32:18;;;;;;;10.70;4.67;;;;;;;9.98;45.33;101648.08;3443332;80;21038;-76
2022/05/18 20:37:10;;;;;;;13.15;5.25;;;;;;;9.80;45.68;101655.73;3452542;80;21000;-76
2022/05/18 20:42:01;;;;;;;13.75;4.45;;;;;;;9.66;46.06;101653.94;3447437;80;20987;-76
2022/05/18 20:46:53;;;;;;;9.40;3.55;;;;;;;9.59;46.31;101653.67;3470469;80;21476;-76
2022/05/18 20:51:44;;;;;;;9.00;4.25;;;;;;;9.49;46.74;101650.72;3483429;80;22625;-75
2022/05/18 20:56:43;;;;;;;8.68;3.80;;;;;;;9.41;46.92;101649.97;3440334;80;20957;-75
2022/05/18 21:01:38;;;;;;;5.67;3.55;;;;;;;9.27;46.79;101650.78;3460264;80;20934;-75
2022/05/18 21:06:29;;;;;;;6.53;3.85;;;;;;;9.14;46.91;101660.70;3457053;80;21996;-75
2022/05/18 21:11:27;;;;;;;12.50;4.45;;;;;;;8.97;47.56;101663.05;3466089;80;20990;-75
2022/05/18 21:16:18;;;;;;;7.08;3.98;;;;;;;8.81;47.53;101656.80;3451631;80;20989;-75
2022/05/18 21:21:09;;;;;;;7.25;3.98;;;;;;;8.39;47.92;101655.99;3480501;80;20945;-75
2022/05/18 21:26:00;;;;;;;8.23;3.65;;;;;;;8.39;47.92;101655.99;3485778;80;20938;-75
2022/05/18 21:30:51;;;;;;;5.67;2.98;;;;;;;8.28;47.91;101663.75;3439061;80;21515;-76
2022/05/18 21:35:42;;;;;;;6.53;3.08;;;;;;;8.23;48.54;101653.59;3462163;80;20985;-76
2022/05/18 21:40:40;;;;;;;8.05;2.80;;;;;;;8.21;48.94;101660.42;3433400;80;21890;-75
2022/05/18 21:45:31;;;;;;;8.07;3.80;;;;;;;8.13;49.00;101652.73;3482588;80;21393;-75
2022/05/18 21:50:24;;;;;;;7.25;3.50;;;;;;;8.03;48.92;101655.36;3522258;80;20965;-76
2022/05/18 21:55:15;;;;;;;10.20;2.85;;;;;;;7.83;49.03;101657.08;3494758;80;20931;-76
2022/05/18 22:00:10;;;;;;;8.23;4.17;;;;;;;7.75;49.10;101656.75;3480025;80;20969;-75
2022/05/18 22:05:03;;;;;;;7.35;3.77;;;;;;;7.60;49.40;101662.16;3505955;80;21490;-76
2022/05/18 22:09:54;;;;;;;8.35;3.80;;;;;;;7.47;49.89;101659.82;3463377;80;20997;-75
2022/05/18 22:14:45;;;;;;;9.15;4.08;;;;;;;7.43;50.23;101652.75;3466344;80;20988;-75
2022/05/18 22:19:37;;;;;;;11.70;4.60;;;;;;;7.37;49.92;101648.19;3453646;81;21453;-76
2022/05/18 22:24:33;;;;;;;9.55;4.28;;;;;;;7.24;50.31;101650.64;3463715;80;20964;-75
2022/05/18 22:29:25;;;;;;;7.50;4.37;;;;;;;7.10;50.65;101646.53;3494097;81;21153;-76
2022/05/18 22:34:18;;;;;;;9.28;4.80;;;;;;;7.10;50.83;101645.62;3479429;80;20932;-76
2022/05/18 22:39:10;;;;;;;13.30;5.22;;;;;;;6.98;50.60;101640.80;3473825;80;21197;-76
2022/05/18 22:44:02;;;;;;;8.73;4.30;;;;;;;6.91;51.06;101645.20;3432522;80;20906;-76
2022/05/18 22:48:54;;;;;;;10.25;5.10;;;;;;;6.82;51.07;101651.70;3461708;80;21013;-76
2022/05/18 22:53:45;;;;;;;10.45;4.62;;;;;;;6.73;51.52;101646.10;3484737;80;21080;-76
2022/05/18 22:58:36;;;;;;;8.70;4.60;;;;;;;6.59;51.80;101649.72;3482761;81;20985;-76
2022/05/18 23:03:28;;;;;;;11.23;5.93;;;;;;;6.48;51.87;101652.67;3515978;81;20945;-76
2022/05/18 23:08:21;;;;;;;13.10;5.67;;;;;;;6.42;52.07;101644.64;3407146;81;21189;-76
2022/05/18 23:13:12;;;;;;;16.67;5.72;;;;;;;6.28;52.32;101649.53;3445207;81;20945;-76
2022/05/18 23:18:03;;;;;;;12.58;5.90;;;;;;;6.20;52.54;101646.96;3473575;80;21136;-76